sensor_id;sensor_type;location;lat;lon;timestamp;pressure;altitude;pressure_sealevel;temperature;humidity
84020;BME280;74102;49.084;13.694;2023-11-19T00:01:33;93306.59;;;4.03;70.00
84020;BME280;74102;49.084;13.694;2023-11-19T00:03:58;93307.97;;;4.07;69.82
84020;BME280;74102;49.084;13.694;2023-11-19T00:06:24;93294.06;;;4.08;69.91
84020;BME280;74102;49.084;13.694;2023-11-19T00:08:50;93283.72;;;4.08;70.00
84020;BME280;74102;49.084;13.694;2023-11-19T00:11:16;93279.78;;;4.04;70.01
84020;BME280;74102;49.084;13.694;2023-11-19T00:13:41;93275.00;;;4.09;69.66
84020;BME280;74102;49.084;13.694;2023-11-19T00:16:07;93273.09;;;4.11;69.82
84020;BME280;74102;49.084;13.694;2023-11-19T00:18:34;93267.63;;;4.14;70.00
84020;BME280;74102;49.084;13.694;2023-11-19T00:21:00;93257.56;;;4.11;69.87
84020;BME280;74102;49.084;13.694;2023-11-19T00:23:27;93242.84;;;4.02;70.02
84020;BME280;74102;49.084;13.694;2023-11-19T00:25:52;93249.66;;;4.03;69.97
84020;BME280;74102;49.084;13.694;2023-11-19T00:28:18;93260.84;;;4.04;69.73
84020;BME280;74102;49.084;13.694;2023-11-19T00:30:43;93250.50;;;4.04;69.81
84020;BME280;74102;49.084;13.694;2023-11-19T00:33:08;93237.84;;;4.01;69.92
84020;BME280;74102;49.084;13.694;2023-11-19T00:35:34;93244.75;;;3.81;69.75
84020;BME280;74102;49.084;13.694;2023-11-19T00:37:59;93237.38;;;3.77;70.28
84020;BME280;74102;49.084;13.694;2023-11-19T00:40:25;93225.94;;;3.79;69.98
84020;BME280;74102;49.084;13.694;2023-11-19T00:42:51;93231.66;;;3.83;69.97
84020;BME280;74102;49.084;13.694;2023-11-19T00:45:16;93226.78;;;3.80;69.90
84020;BME280;74102;49.084;13.694;2023-11-19T00:47:42;93220.25;;;3.85;69.85
84020;BME280;74102;49.084;13.694;2023-11-19T00:50:08;93206.34;;;3.86;69.79
84020;BME280;74102;49.084;13.694;2023-11-19T00:52:37;93207.19;;;3.77;70.19
84020;BME280;74102;49.084;13.694;2023-11-19T00:55:03;93198.59;;;3.67;70.27
84020;BME280;74102;49.084;13.694;2023-11-19T00:57:30;93187.28;;;3.58;70.42
84020;BME280;74102;49.084;13.694;2023-11-19T00:59:57;93181.28;;;3.58;70.60
84020;BME280;74102;49.084;13.694;2023-11-19T01:02:24;93167.97;;;3.53;70.83
84020;BME280;74102;49.084;13.694;2023-11-19T01:04:49;93199.50;;;3.47;71.00
84020;BME280;74102;49.084;13.694;2023-11-19T01:07:15;93183.75;;;3.50;71.05
84020;BME280;74102;49.084;13.694;2023-11-19T01:09:44;93185.66;;;3.57;70.84
84020;BME280;74102;49.084;13.694;2023-11-19T01:12:09;93176.53;;;3.63;70.48
84020;BME280;74102;49.084;13.694;2023-11-19T01:14:38;93175.59;;;3.64;70.46
84020;BME280;74102;49.084;13.694;2023-11-19T01:17:03;93172.88;;;3.65;70.44
84020;BME280;74102;49.084;13.694;2023-11-19T01:19:30;93172.72;;;3.67;70.23
84020;BME280;74102;49.084;13.694;2023-11-19T01:21:55;93178.31;;;3.62;70.78
84020;BME280;74102;49.084;13.694;2023-11-19T01:24:21;93176.97;;;3.68;70.60
84020;BME280;74102;49.084;13.694;2023-11-19T01:26:46;93170.84;;;3.69;70.68
84020;BME280;74102;49.084;13.694;2023-11-19T01:29:15;93159.53;;;3.70;70.48
84020;BME280;74102;49.084;13.694;2023-11-19T01:31:46;93153.97;;;3.75;70.88
84020;BME280;74102;49.084;13.694;2023-11-19T01:34:16;93148.63;;;3.76;70.46
84020;BME280;74102;49.084;13.694;2023-11-19T01:36:41;93142.91;;;3.82;70.51
84020;BME280;74102;49.084;13.694;2023-11-19T01:39:07;93138.16;;;3.87;70.23
84020;BME280;74102;49.084;13.694;2023-11-19T01:41:36;93134.63;;;3.79;70.31
84020;BME280;74102;49.084;13.694;2023-11-19T01:44:01;93130.13;;;3.71;70.76
84020;BME280;74102;49.084;13.694;2023-11-19T01:46:27;93127.16;;;3.66;70.97
84020;BME280;74102;49.084;13.694;2023-11-19T01:48:54;93126.88;;;3.69;71.02
84020;BME280;74102;49.084;13.694;2023-11-19T01:51:21;93117.88;;;3.63;71.40
84020;BME280;74102;49.084;13.694;2023-11-19T01:53:48;93113.53;;;3.64;71.30
84020;BME280;74102;49.084;13.694;2023-11-19T01:56:15;93099.09;;;3.61;71.56
84020;BME280;74102;49.084;13.694;2023-11-19T01:58:42;93100.75;;;3.53;72.01
84020;BME280;74102;49.084;13.694;2023-11-19T02:01:09;93091.47;;;3.50;71.99
84020;BME280;74102;49.084;13.694;2023-11-19T02:03:36;93080.88;;;3.53;72.17
84020;BME280;74102;49.084;13.694;2023-11-19T02:06:03;93079.25;;;3.62;71.85
84020;BME280;74102;49.084;13.694;2023-11-19T02:08:30;93088.09;;;3.69;71.54
84020;BME280;74102;49.084;13.694;2023-11-19T02:10:55;93075.16;;;3.69;71.42
84020;BME280;74102;49.084;13.694;2023-11-19T02:13:26;93057.72;;;3.71;71.53
84020;BME280;74102;49.084;13.694;2023-11-19T02:15:51;93053.91;;;3.75;71.39
84020;BME280;74102;49.084;13.694;2023-11-19T02:18:18;93059.47;;;3.80;71.24
84020;BME280;74102;49.084;13.694;2023-11-19T02:20:44;93046.53;;;3.80;71.27
84020;BME280;74102;49.084;13.694;2023-11-19T02:23:09;93062.72;;;3.82;71.56
84020;BME280;74102;49.084;13.694;2023-11-19T02:25:35;93044.13;;;3.79;71.72
84020;BME280;74102;49.084;13.694;2023-11-19T02:28:02;93054.44;;;3.88;71.34
84020;BME280;74102;49.084;13.694;2023-11-19T02:30:28;93043.13;;;3.89;71.50
84020;BME280;74102;49.084;13.694;2023-11-19T02:33:00;93061.09;;;3.91;71.68
84020;BME280;74102;49.084;13.694;2023-11-19T02:35:30;93063.41;;;3.94;71.28
84020;BME280;74102;49.084;13.694;2023-11-19T02:37:57;93052.53;;;3.90;71.52
84020;BME280;74102;49.084;13.694;2023-11-19T02:40:22;93061.38;;;3.88;71.96
84020;BME280;74102;49.084;13.694;2023-11-19T02:42:50;93054.72;;;3.85;72.13
84020;BME280;74102;49.084;13.694;2023-11-19T02:45:15;93061.63;;;3.94;71.65
84020;BME280;74102;49.084;13.694;2023-11-19T02:47:41;93057.94;;;3.97;71.97
84020;BME280;74102;49.084;13.694;2023-11-19T02:50:12;93052.09;;;4.04;72.03
84020;BME280;74102;49.084;13.694;2023-11-19T02:52:43;93059.28;;;4.10;72.11
84020;BME280;74102;49.084;13.694;2023-11-19T02:55:10;93046.19;;;4.12;72.28
84020;BME280;74102;49.084;13.694;2023-11-19T02:57:38;93047.97;;;4.11;72.09
84020;BME280;74102;49.084;13.694;2023-11-19T03:00:06;93047.28;;;4.09;72.18
84020;BME280;74102;49.084;13.694;2023-11-19T03:02:39;93049.75;;;4.11;72.16
84020;BME280;74102;49.084;13.694;2023-11-19T03:05:10;93042.94;;;4.10;72.67
84020;BME280;74102;49.084;13.694;2023-11-19T03:07:37;93045.09;;;4.14;72.54
84020;BME280;74102;49.084;13.694;2023-11-19T03:10:02;93040.72;;;4.15;72.36
84020;BME280;74102;49.084;13.694;2023-11-19T03:12:31;93036.91;;;4.19;72.29
84020;BME280;74102;49.084;13.694;2023-11-19T03:14:56;93033.50;;;4.18;72.62
84020;BME280;74102;49.084;13.694;2023-11-19T03:17:21;93033.50;;;4.18;72.46
84020;BME280;74102;49.084;13.694;2023-11-19T03:19:47;93017.69;;;4.21;72.79
84020;BME280;74102;49.084;13.694;2023-11-19T03:22:13;93018.91;;;4.17;72.66
84020;BME280;74102;49.084;13.694;2023-11-19T03:24:39;93030.09;;;4.18;72.84
84020;BME280;74102;49.084;13.694;2023-11-19T03:27:05;93028.59;;;4.15;73.07
84020;BME280;74102;49.084;13.694;2023-11-19T03:29:30;93025.19;;;4.15;72.95
84020;BME280;74102;49.084;13.694;2023-11-19T03:31:55;93014.84;;;4.15;73.21
84020;BME280;74102;49.084;13.694;2023-11-19T03:34:21;93006.97;;;4.16;73.66
84020;BME280;74102;49.084;13.694;2023-11-19T03:36:47;93012.97;;;4.17;73.38
84020;BME280;74102;49.084;13.694;2023-11-19T03:39:12;93002.16;;;4.21;73.19
84020;BME280;74102;49.084;13.694;2023-11-19T03:41:37;92996.03;;;4.22;73.35
84020;BME280;74102;49.084;13.694;2023-11-19T03:44:03;92995.38;;;4.20;73.24
84020;BME280;74102;49.084;13.694;2023-11-19T03:46:28;92999.56;;;4.21;73.62
84020;BME280;74102;49.084;13.694;2023-11-19T03:48:55;92997.38;;;4.27;73.60
84020;BME280;74102;49.084;13.694;2023-11-19T03:51:20;92998.28;;;4.35;73.43
84020;BME280;74102;49.084;13.694;2023-11-19T03:53:46;92997.88;;;4.40;73.71
84020;BME280;74102;49.084;13.694;2023-11-19T03:56:12;92994.88;;;4.35;74.32
84020;BME280;74102;49.084;13.694;2023-11-19T03:58:38;93000.72;;;4.37;73.82
84020;BME280;74102;49.084;13.694;2023-11-19T04:01:11;92994.59;;;4.38;74.10
84020;BME280;74102;49.084;13.694;2023-11-19T04:03:38;93002.22;;;4.39;73.94
84020;BME280;74102;49.084;13.694;2023-11-19T04:06:03;92990.19;;;4.48;73.68
84020;BME280;74102;49.084;13.694;2023-11-19T04:08:29;92986.34;;;4.52;73.50
84020;BME280;74102;49.084;13.694;2023-11-19T04:10:55;92988.66;;;4.55;73.46
84020;BME280;74102;49.084;13.694;2023-11-19T04:13:20;92984.13;;;4.57;73.60
84020;BME280;74102;49.084;13.694;2023-11-19T04:15:46;92988.06;;;4.61;73.55
84020;BME280;74102;49.084;13.694;2023-11-19T04:18:11;92976.16;;;4.68;73.53
84020;BME280;74102;49.084;13.694;2023-11-19T04:20:37;92982.41;;;4.75;73.37
84020;BME280;74102;49.084;13.694;2023-11-19T04:23:02;92975.00;;;4.80;73.63
84020;BME280;74102;49.084;13.694;2023-11-19T04:25:27;92981.81;;;4.81;73.00
84020;BME280;74102;49.084;13.694;2023-11-19T04:27:54;92968.69;;;4.83;73.32
84020;BME280;74102;49.084;13.694;2023-11-19T04:30:19;92963.38;;;4.84;73.47
84020;BME280;74102;49.084;13.694;2023-11-19T04:32:44;92967.28;;;4.88;73.49
84020;BME280;74102;49.084;13.694;2023-11-19T04:35:10;92967.03;;;4.91;73.53
84020;BME280;74102;49.084;13.694;2023-11-19T04:37:36;92960.44;;;4.97;73.20
84020;BME280;74102;49.084;13.694;2023-11-19T04:40:02;92973.50;;;4.95;73.64
84020;BME280;74102;49.084;13.694;2023-11-19T04:42:27;92960.94;;;5.00;73.05
84020;BME280;74102;49.084;13.694;2023-11-19T04:44:52;92952.50;;;4.98;73.53
84020;BME280;74102;49.084;13.694;2023-11-19T04:47:18;92947.69;;;5.03;73.11
84020;BME280;74102;49.084;13.694;2023-11-19T04:49:43;92938.78;;;5.06;72.91
84020;BME280;74102;49.084;13.694;2023-11-19T04:52:09;92934.72;;;5.03;73.52
84020;BME280;74102;49.084;13.694;2023-11-19T04:54:34;92944.88;;;4.97;73.79
84020;BME280;74102;49.084;13.694;2023-11-19T04:57:00;92939.47;;;4.90;73.63
84020;BME280;74102;49.084;13.694;2023-11-19T04:59:25;92948.78;;;4.83;73.89
84020;BME280;74102;49.084;13.694;2023-11-19T05:01:52;92932.72;;;4.79;73.71
84020;BME280;74102;49.084;13.694;2023-11-19T05:04:18;92921.78;;;4.68;74.15
84020;BME280;74102;49.084;13.694;2023-11-19T05:06:44;92936.63;;;4.66;74.25
84020;BME280;74102;49.084;13.694;2023-11-19T05:09:09;92920.66;;;4.70;74.09
84020;BME280;74102;49.084;13.694;2023-11-19T05:11:35;92917.25;;;4.70;74.19
84020;BME280;74102;49.084;13.694;2023-11-19T05:14:02;92882.63;;;4.71;74.37
84020;BME280;74102;49.084;13.694;2023-11-19T05:16:31;92865.97;;;4.73;75.17
84020;BME280;74102;49.084;13.694;2023-11-19T05:18:57;92875.75;;;4.79;73.87
84020;BME280;74102;49.084;13.694;2023-11-19T05:21:22;92907.63;;;4.80;74.25
84020;BME280;74102;49.084;13.694;2023-11-19T05:23:48;92922.44;;;4.88;74.28
84020;BME280;74102;49.084;13.694;2023-11-19T05:26:19;92904.25;;;4.97;74.28
84020;BME280;74102;49.084;13.694;2023-11-19T05:28:44;92893.56;;;5.00;74.46
84020;BME280;74102;49.084;13.694;2023-11-19T05:31:10;92883.50;;;4.97;74.08
84020;BME280;74102;49.084;13.694;2023-11-19T05:33:35;92887.34;;;4.93;73.84
84020;BME280;74102;49.084;13.694;2023-11-19T05:36:01;92881.34;;;4.93;73.97
84020;BME280;74102;49.084;13.694;2023-11-19T05:38:29;92881.88;;;4.96;73.70
84020;BME280;74102;49.084;13.694;2023-11-19T05:40:54;92883.19;;;5.00;73.37
84020;BME280;74102;49.084;13.694;2023-11-19T05:43:20;92889.94;;;4.93;73.64
84020;BME280;74102;49.084;13.694;2023-11-19T05:45:46;92877.59;;;4.87;74.10
84020;BME280;74102;49.084;13.694;2023-11-19T05:48:11;92880.00;;;4.89;73.97
84020;BME280;74102;49.084;13.694;2023-11-19T05:50:37;92873.75;;;4.91;73.99
84020;BME280;74102;49.084;13.694;2023-11-19T05:53:02;92882.47;;;4.90;74.52
84020;BME280;74102;49.084;13.694;2023-11-19T05:55:30;92865.28;;;4.89;74.39
84020;BME280;74102;49.084;13.694;2023-11-19T05:57:56;92869.22;;;4.93;74.27
84020;BME280;74102;49.084;13.694;2023-11-19T06:00:21;92870.38;;;4.99;74.07
84020;BME280;74102;49.084;13.694;2023-11-19T06:02:47;92867.06;;;5.06;74.06
84020;BME280;74102;49.084;13.694;2023-11-19T06:05:12;92854.66;;;5.18;74.23
84020;BME280;74102;49.084;13.694;2023-11-19T06:07:38;92836.41;;;5.27;73.88
84020;BME280;74102;49.084;13.694;2023-11-19T06:10:05;92824.59;;;5.33;74.09
84020;BME280;74102;49.084;13.694;2023-11-19T06:12:33;92837.44;;;5.43;74.07
84020;BME280;74102;49.084;13.694;2023-11-19T06:14:59;92836.56;;;5.52;73.58
84020;BME280;74102;49.084;13.694;2023-11-19T06:17:25;92838.66;;;5.56;73.88
84020;BME280;74102;49.084;13.694;2023-11-19T06:19:50;92840.63;;;5.62;73.77
84020;BME280;74102;49.084;13.694;2023-11-19T06:22:16;92848.94;;;5.66;73.63
84020;BME280;74102;49.084;13.694;2023-11-19T06:24:41;92843.28;;;5.70;73.71
84020;BME280;74102;49.084;13.694;2023-11-19T06:27:07;92844.75;;;5.73;74.04
84020;BME280;74102;49.084;13.694;2023-11-19T06:29:33;92848.81;;;5.75;73.97
84020;BME280;74102;49.084;13.694;2023-11-19T06:31:58;92860.06;;;5.84;74.00
84020;BME280;74102;49.084;13.694;2023-11-19T06:34:23;92856.88;;;5.90;74.44
84020;BME280;74102;49.084;13.694;2023-11-19T06:36:49;92860.75;;;5.94;73.97
84020;BME280;74102;49.084;13.694;2023-11-19T06:39:14;92855.41;;;5.96;74.50
84020;BME280;74102;49.084;13.694;2023-11-19T06:41:44;92869.84;;;5.98;74.75
84020;BME280;74102;49.084;13.694;2023-11-19T06:44:10;92875.88;;;5.99;74.53
84020;BME280;74102;49.084;13.694;2023-11-19T12:33:15;92808.69;;;20.35;64.55
84020;BME280;74102;49.084;13.694;2023-11-19T12:35:43;92805.09;;;20.46;64.80
84020;BME280;74102;49.084;13.694;2023-11-19T13:47:03;92898.31;;;9.18;73.04
84020;BME280;74102;49.084;13.694;2023-11-19T13:49:34;92899.91;;;9.19;74.29
84020;BME280;74102;49.084;13.694;2023-11-19T13:51:59;92890.13;;;9.21;74.70
84020;BME280;74102;49.084;13.694;2023-11-19T13:54:25;92889.41;;;9.27;74.93
84020;BME280;74102;49.084;13.694;2023-11-19T14:00:30;92891.78;;;9.37;74.52
84020;BME280;74102;49.084;13.694;2023-11-19T14:02:58;92884.41;;;9.40;74.26
84020;BME280;74102;49.084;13.694;2023-11-19T14:19:01;92879.75;;;9.50;74.18
84020;BME280;74102;49.084;13.694;2023-11-19T14:24:49;92884.59;;;9.53;73.26
84020;BME280;74102;49.084;13.694;2023-11-19T14:27:14;92884.59;;;9.53;73.57
84020;BME280;74102;49.084;13.694;2023-11-19T14:29:42;92878.69;;;9.60;72.90
84020;BME280;74102;49.084;13.694;2023-11-19T14:32:09;92867.25;;;9.61;73.50
84020;BME280;74102;49.084;13.694;2023-11-19T14:34:35;92872.47;;;9.61;73.45
84020;BME280;74102;49.084;13.694;2023-11-19T14:37:03;92875.78;;;9.54;73.75
84020;BME280;74102;49.084;13.694;2023-11-19T14:39:49;92871.03;;;9.58;74.30
84020;BME280;74102;49.084;13.694;2023-11-19T14:42:16;92875.44;;;9.58;74.31
84020;BME280;74102;49.084;13.694;2023-11-19T14:48:11;92876.50;;;9.48;74.84
84020;BME280;74102;49.084;13.694;2023-11-19T14:50:36;92881.38;;;9.51;75.02
84020;BME280;74102;49.084;13.694;2023-11-19T14:53:02;92871.28;;;9.48;75.01
84020;BME280;74102;49.084;13.694;2023-11-19T14:55:34;92883.88;;;9.45;75.06
84020;BME280;74102;49.084;13.694;2023-11-19T14:58:02;92880.44;;;9.44;75.27
84020;BME280;74102;49.084;13.694;2023-11-19T15:00:28;92870.31;;;9.49;74.68
84020;BME280;74102;49.084;13.694;2023-11-19T15:02:54;92893.78;;;9.49;74.83
84020;BME280;74102;49.084;13.694;2023-11-19T15:05:22;92872.56;;;9.52;74.35
84020;BME280;74102;49.084;13.694;2023-11-19T15:07:55;92879.38;;;9.53;74.00
84020;BME280;74102;49.084;13.694;2023-11-19T15:10:21;92871.91;;;9.50;74.25
84020;BME280;74102;49.084;13.694;2023-11-19T15:12:46;92856.09;;;9.52;73.96
84020;BME280;74102;49.084;13.694;2023-11-19T15:15:12;92871.28;;;9.48;72.96
84020;BME280;74102;49.084;13.694;2023-11-19T15:17:40;92868.50;;;9.50;73.08
84020;BME280;74102;49.084;13.694;2023-11-19T15:20:10;92889.28;;;9.43;72.80
84020;BME280;74102;49.084;13.694;2023-11-19T15:22:36;92870.00;;;9.44;72.81
84020;BME280;74102;49.084;13.694;2023-11-19T15:25:01;92877.84;;;9.44;72.47
84020;BME280;74102;49.084;13.694;2023-11-19T15:27:30;92879.19;;;9.40;72.77
84020;BME280;74102;49.084;13.694;2023-11-19T15:29:56;92877.09;;;9.36;72.68
84020;BME280;74102;49.084;13.694;2023-11-19T15:32:24;92896.06;;;9.30;72.31
84020;BME280;74102;49.084;13.694;2023-11-19T15:34:49;92877.00;;;9.29;72.02
84020;BME280;74102;49.084;13.694;2023-11-19T15:37:15;92867.19;;;9.31;71.33
84020;BME280;74102;49.084;13.694;2023-11-19T15:39:50;92866.09;;;9.26;71.73
84020;BME280;74102;49.084;13.694;2023-11-19T15:42:26;92859.78;;;9.20;71.98
84020;BME280;74102;49.084;13.694;2023-11-19T15:44:59;92883.97;;;9.14;71.59
84020;BME280;74102;49.084;13.694;2023-11-19T15:47:27;92887.91;;;9.10;71.73
84020;BME280;74102;49.084;13.694;2023-11-19T15:50:29;92880.59;;;9.06;71.65
84020;BME280;74102;49.084;13.694;2023-11-19T15:56:19;92896.47;;;8.96;72.59
84020;BME280;74102;49.084;13.694;2023-11-19T15:58:51;92898.44;;;8.94;72.73
84020;BME280;74102;49.084;13.694;2023-11-19T16:01:17;92893.22;;;8.94;73.04
84020;BME280;74102;49.084;13.694;2023-11-19T16:03:43;92891.94;;;8.90;73.19
84020;BME280;74102;49.084;13.694;2023-11-19T16:06:11;92897.16;;;8.90;73.42
84020;BME280;74102;49.084;13.694;2023-11-19T16:08:39;92890.00;;;8.92;73.53
84020;BME280;74102;49.084;13.694;2023-11-19T16:11:04;92896.03;;;8.92;73.92
84020;BME280;74102;49.084;13.694;2023-11-19T16:13:31;92889.00;;;8.93;74.17
84020;BME280;74102;49.084;13.694;2023-11-19T16:15:56;92882.47;;;8.97;73.88
84020;BME280;74102;49.084;13.694;2023-11-19T16:18:22;92881.47;;;8.98;73.72
84020;BME280;74102;49.084;13.694;2023-11-19T16:20:54;92877.72;;;9.00;74.59
84020;BME280;74102;49.084;13.694;2023-11-19T16:23:19;92894.44;;;9.06;74.41
84020;BME280;74102;49.084;13.694;2023-11-19T16:25:44;92900.94;;;9.10;74.09
84020;BME280;74102;49.084;13.694;2023-11-19T16:28:24;92882.34;;;9.13;73.98
84020;BME280;74102;49.084;13.694;2023-11-19T16:30:49;92889.53;;;9.11;73.44
84020;BME280;74102;49.084;13.694;2023-11-19T16:33:18;92899.91;;;9.19;73.43
84020;BME280;74102;49.084;13.694;2023-11-19T16:35:44;92898.31;;;9.18;73.08
84020;BME280;74102;49.084;13.694;2023-11-19T16:38:18;92893.09;;;9.18;71.15
84020;BME280;74102;49.084;13.694;2023-11-19T16:41:25;92890.13;;;9.21;71.76
84020;BME280;74102;49.084;13.694;2023-11-19T16:43:54;92892.53;;;9.23;71.56
84020;BME280;74102;49.084;13.694;2023-11-19T16:46:24;92888.03;;;9.17;71.22
84020;BME280;74102;49.084;13.694;2023-11-19T16:48:51;92907.72;;;9.19;70.77
84020;BME280;74102;49.084;13.694;2023-11-19T16:51:18;92890.28;;;9.20;70.60
84020;BME280;74102;49.084;13.694;2023-11-19T16:53:45;92900.91;;;9.18;70.75
84020;BME280;74102;49.084;13.694;2023-11-19T16:56:12;92928.94;;;9.16;70.45
84020;BME280;74102;49.084;13.694;2023-11-19T16:58:38;92910.88;;;9.15;70.42
84020;BME280;74102;49.084;13.694;2023-11-19T17:01:09;92909.72;;;9.17;70.39
84020;BME280;74102;49.084;13.694;2023-11-19T17:03:38;92916.88;;;9.15;70.17
84020;BME280;74102;49.084;13.694;2023-11-19T17:06:04;92917.53;;;9.17;70.14
84020;BME280;74102;49.084;13.694;2023-11-19T17:08:33;92902.22;;;9.14;69.71
84020;BME280;74102;49.084;13.694;2023-11-19T17:11:00;92892.44;;;9.16;69.72
84020;BME280;74102;49.084;13.694;2023-11-19T17:13:33;92902.38;;;9.13;69.84
84020;BME280;74102;49.084;13.694;2023-11-19T17:15:59;92894.41;;;9.14;70.03
84020;BME280;74102;49.084;13.694;2023-11-19T17:18:24;92914.81;;;9.11;70.07
84020;BME280;74102;49.084;13.694;2023-11-19T17:20:50;92919.69;;;9.14;69.77
84020;BME280;74102;49.084;13.694;2023-11-19T17:23:27;92908.44;;;9.13;69.42
84020;BME280;74102;49.084;13.694;2023-11-19T17:25:53;92911.34;;;9.18;69.18
84020;BME280;74102;49.084;13.694;2023-11-19T17:28:18;92911.66;;;9.15;69.31
84020;BME280;74102;49.084;13.694;2023-11-19T17:30:47;92913.38;;;9.08;69.68
84020;BME280;74102;49.084;13.694;2023-11-19T17:33:22;92921.19;;;9.08;69.60
84020;BME280;74102;49.084;13.694;2023-11-19T17:35:47;92910.88;;;9.15;69.24
84020;BME280;74102;49.084;13.694;2023-11-19T17:38:13;92910.69;;;9.16;69.26
84020;BME280;74102;49.084;13.694;2023-11-19T17:40:38;92906.44;;;9.15;69.28
84020;BME280;74102;49.084;13.694;2023-11-19T17:43:04;92904.50;;;9.17;69.47
84020;BME280;74102;49.084;13.694;2023-11-19T17:45:29;92916.75;;;9.09;69.29
84020;BME280;74102;49.084;13.694;2023-11-19T17:47:55;92915.63;;;9.11;69.26
84020;BME280;74102;49.084;13.694;2023-11-19T17:50:21;92920.84;;;9.11;69.24
84020;BME280;74102;49.084;13.694;2023-11-19T17:52:47;92904.75;;;9.22;69.16
84020;BME280;74102;49.084;13.694;2023-11-19T17:55:13;92893.34;;;9.23;69.23
84020;BME280;74102;49.084;13.694;2023-11-19T17:57:39;92926.94;;;9.26;69.28
84020;BME280;74102;49.084;13.694;2023-11-19T18:00:09;92920.06;;;9.25;69.14
84020;BME280;74102;49.084;13.694;2023-11-19T18:02:46;92913.38;;;9.31;69.48
84020;BME280;74102;49.084;13.694;2023-11-19T18:05:17;92923.63;;;9.32;69.79
84020;BME280;74102;49.084;13.694;2023-11-19T18:07:48;92926.84;;;9.34;69.84
84020;BME280;74102;49.084;13.694;2023-11-19T18:10:14;92926.84;;;9.34;70.00
84020;BME280;74102;49.084;13.694;2023-11-19T18:12:48;92915.63;;;9.34;69.74
84020;BME280;74102;49.084;13.694;2023-11-19T18:15:14;92936.84;;;9.31;70.21
84020;BME280;74102;49.084;13.694;2023-11-19T18:20:47;92940.44;;;9.30;70.18
84020;BME280;74102;49.084;13.694;2023-11-19T18:23:13;92945.94;;;9.35;70.54
84020;BME280;74102;49.084;13.694;2023-11-19T18:25:42;92944.69;;;9.31;70.15
84020;BME280;74102;49.084;13.694;2023-11-19T18:28:07;92934.69;;;9.34;70.14
84020;BME280;74102;49.084;13.694;2023-11-19T18:30:35;92947.91;;;9.33;69.69
84020;BME280;74102;49.084;13.694;2023-11-19T18:33:01;92939.28;;;9.32;69.71
84020;BME280;74102;49.084;13.694;2023-11-19T18:35:26;92942.50;;;9.34;70.28
84020;BME280;74102;49.084;13.694;2023-11-19T18:40:57;92935.84;;;9.32;69.46
84020;BME280;74102;49.084;13.694;2023-11-19T18:43:22;92951.34;;;9.33;69.47
84020;BME280;74102;49.084;13.694;2023-11-19T18:45:47;92948.72;;;9.33;69.23
84020;BME280;74102;49.084;13.694;2023-11-19T18:48:13;92962.72;;;9.40;69.72
84020;BME280;74102;49.084;13.694;2023-11-19T18:50:38;92955.03;;;9.39;70.63
84020;BME280;74102;49.084;13.694;2023-11-19T18:53:04;92990.75;;;9.16;71.16
84020;BME280;74102;49.084;13.694;2023-11-19T18:55:30;92983.53;;;8.95;72.18
84020;BME280;74102;49.084;13.694;2023-11-19T18:57:55;92956.50;;;8.88;72.78
84020;BME280;74102;49.084;13.694;2023-11-19T19:00:24;92954.63;;;8.74;72.76
84020;BME280;74102;49.084;13.694;2023-11-19T19:02:51;92939.97;;;8.73;73.12
84020;BME280;74102;49.084;13.694;2023-11-19T19:05:16;92948.50;;;8.67;74.15
84020;BME280;74102;49.084;13.694;2023-11-19T19:07:43;92950.28;;;8.58;73.67
84020;BME280;74102;49.084;13.694;2023-11-19T19:10:09;92939.75;;;8.52;73.23
84020;BME280;74102;49.084;13.694;2023-11-19T19:12:39;92955.38;;;8.52;73.31
84020;BME280;74102;49.084;13.694;2023-11-19T19:15:10;92937.66;;;8.47;73.07
84020;BME280;74102;49.084;13.694;2023-11-19T19:17:43;92930.94;;;8.53;73.58
84020;BME280;74102;49.084;13.694;2023-11-19T19:20:09;92934.53;;;8.52;73.48
84020;BME280;74102;49.084;13.694;2023-11-19T19:22:36;92949.53;;;8.50;73.05
84020;BME280;74102;49.084;13.694;2023-11-19T19:25:42;92947.94;;;8.40;72.52
84020;BME280;74102;49.084;13.694;2023-11-19T19:28:08;92933.56;;;8.44;72.29
84020;BME280;74102;49.084;13.694;2023-11-19T19:30:37;92932.44;;;8.47;71.61
84020;BME280;74102;49.084;13.694;2023-11-19T19:33:03;92948.56;;;8.51;71.39
84020;BME280;74102;49.084;13.694;2023-11-19T19:35:32;92941.38;;;8.53;71.35
84020;BME280;74102;49.084;13.694;2023-11-19T19:38:04;92949.34;;;8.51;71.74
84020;BME280;74102;49.084;13.694;2023-11-19T19:40:30;92947.88;;;8.57;71.13
84020;BME280;74102;49.084;13.694;2023-11-19T19:42:55;92942.78;;;8.63;71.14
84020;BME280;74102;49.084;13.694;2023-11-19T19:45:23;92942.94;;;8.62;71.03
84020;BME280;74102;49.084;13.694;2023-11-19T19:47:52;92957.91;;;8.68;71.02
84020;BME280;74102;49.084;13.694;2023-11-19T19:50:19;92952.06;;;8.66;70.79
84020;BME280;74102;49.084;13.694;2023-11-19T19:52:44;92963.94;;;8.68;70.78
84020;BME280;74102;49.084;13.694;2023-11-19T19:55:10;92954.97;;;8.71;70.56
84020;BME280;74102;49.084;13.694;2023-11-19T19:57:35;92956.09;;;8.76;70.58
84020;BME280;74102;49.084;13.694;2023-11-19T20:00:04;92951.03;;;8.75;70.28
84020;BME280;74102;49.084;13.694;2023-11-19T20:02:35;92957.53;;;8.79;70.28
84020;BME280;74102;49.084;13.694;2023-11-19T20:05:01;92949.38;;;8.82;70.29
84020;BME280;74102;49.084;13.694;2023-11-19T20:07:27;92955.91;;;8.78;70.27
84020;BME280;74102;49.084;13.694;2023-11-19T20:09:59;92955.56;;;8.81;69.95
84020;BME280;74102;49.084;13.694;2023-11-19T20:12:26;92953.94;;;8.80;69.94
84020;BME280;74102;49.084;13.694;2023-11-19T20:14:54;92950.34;;;8.81;69.70
84020;BME280;74102;49.084;13.694;2023-11-19T20:17:19;92953.16;;;8.79;69.18
84020;BME280;74102;49.084;13.694;2023-11-19T20:19:45;92960.31;;;8.77;69.23
84020;BME280;74102;49.084;13.694;2023-11-19T20:22:11;92957.41;;;8.72;69.38
84020;BME280;74102;49.084;13.694;2023-11-19T20:24:37;92948.78;;;8.72;69.23
84020;BME280;74102;49.084;13.694;2023-11-19T20:27:02;92954.97;;;8.71;69.21
84020;BME280;74102;49.084;13.694;2023-11-19T20:29:29;92958.38;;;8.71;68.99